METAR Data
IDs: Format: Raw Decoded Include TAF

Data at: 0342 UTC 21 Sep 2018

KPBI 210253Z 08009KT 10SM SCT024 29/23 A3006 RMK AO2 SLP178 T02890233 53010
KPBI 210153Z 07007KT 10SM SCT025 29/24 A3005 RMK AO2 SLP174 T02890239
KPBI 210053Z 08009KT 10SM SCT026 SCT250 29/24 A3004 RMK AO2 SLP170 T02890239
KPBI 202353Z 07009KT 10SM SCT026 SCT250 29/24 A3003 RMK AO2 SLP168 CB DSNT NW T02890239 10333 20289 53009
KPBI 202253Z 09008KT 10SM SCT025 SCT250 29/24 A3002 RMK AO2 SLP166 T02940244
KPBI 202153Z 09012KT 10SM SCT022 SCT250 31/25 A3000 RMK AO2 SLP158 T03060250
KPBI 202053Z 08010KT 10SM SCT025 SCT150 SCT250 31/24 A3000 RMK AO2 SLP159 CB DSNT SW-NW T03110244 55011
KPBI 201953Z 10014KT 10SM SCT035 SCT150 SCT250 32/24 A3000 RMK AO2 LTG DSNT SW AND W SLP158 CB DSNT SW-NW T03170244
KPBI 201853Z 08011KT 10SM SCT036CB SCT150 SCT250 32/23 A3001 RMK AO2 LTG DSNT S-NW TSE45 SLP162 CB SW MOV SW CB DSNT S-NW T03220228
KPBI 201846Z 08011KT 10SM SCT037CB SCT150 SCT250 32/23 A3001 RMK AO2 LTG DSNT S-NW TSE45 CB W MOV SW CB DSNT S-NW T03220228
KPBI 201753Z 07011KT 10SM TS SCT034CB SCT100 SCT140 33/23 A3004 RMK AO2 TSB29 SLP170 OCNL LTGICCG S-SW TS S-SW MOV SW CB DSNT NW T03280233 10339 20261 58012
KPBI 201730Z 06011KT 10SM TS SCT035CB SCT100 SCT140 32/24 A3004 RMK AO2 TSB29 OCNL LTGICCG S TS S MOV SW CB DSNT NW T03170239
KPBI 201653Z 05009KT 10SM SCT039TCU SCT050 SCT250 32/24 A3004 RMK AO2 SLP173 TCU N-SW T03170244
KPBI 201553Z 31006KT 10SM SCT031 SCT040 SCT047 31/24 A3006 RMK AO2 SLP180 T03060239
KPBI 201453Z VRB03KT 10SM SCT027 SCT035 SCT250 32/24 A3007 RMK AO2 SLP181 T03170244 51018
KPBI 201353Z 28005KT 10SM FEW030 SCT160 SCT250 30/24 A3006 RMK AO2 SLP179 T03000244
KPBI 201253Z 26005KT 10SM FEW027 SCT150 SCT250 28/25 A3003 RMK AO2 SLP169 T02830250
KPBI 201153Z 00000KT 10SM FEW025 SCT180 SCT250 26/25 A3002 RMK AO2 SLP164 T02610250 10272 20244 52017
KPBI 201053Z 00000KT 10SM FEW024 SCT180 26/24 A3000 RMK AO2 SLP159 T02610244
KPBI 200953Z 11003KT 10SM FEW026 SCT250 27/24 A2998 RMK AO2 SLP152 T02670244
KPBI 200853Z 00000KT 10SM FEW022 26/24 A2997 RMK AO2 SLP147 T02610244 56010
KPBI 200753Z 21004KT 10SM FEW022 27/24 A2997 RMK AO2 SLP149 T02670244
KPBI 200653Z 00000KT 10SM FEW023 SCT250 27/24 A2998 RMK AO2 SLP151 T02670244
KPBI 200553Z 19003KT 10SM FEW024 SCT250 27/24 A3000 RMK AO2 SLP157 T02720244 10289 20272 58000
KPBI 200453Z 00000KT 10SM FEW024 SCT250 28/24 A3001 RMK AO2 SLP162 T02780244 403390244
KPBI 200353Z 17004KT 10SM FEW028 SCT250 28/24 A3001 RMK AO2 SLP161 T02830244
KPBI 200253Z 16007KT 10SM SCT030 28/24 A3000 RMK AO2 SLP158 T02830239 51017
KPBI 200153Z 14007KT 10SM SCT030 SCT250 28/24 A2999 RMK AO2 SLP154 T02830244
KPBI 200053Z 13006KT 10SM SCT030 SCT250 29/24 A2998 RMK AO2 SLP150 T02890244
KPBI 192353Z 13007KT 10SM FEW030 SCT250 29/24 A2995 RMK AO2 SLP141 T02890239 10333 20289 53005
KPBI 192253Z 12010KT 10SM SCT034 SCT065 SCT250 29/24 A2993 RMK AO2 SLP135 CB DSNT SW T02940244
KPBI 192153Z 13011KT 10SM SCT032 SCT065 SCT250 29/24 A2994 RMK AO2 LTG DSNT W AND NW SLP136 CB DSNT SW-NW T02940239
KPBI 192053Z 11011KT 10SM SCT030 SCT250 32/24 A2993 RMK AO2 SLP135 CB DSNT SW W-NW T03170244 56009
KPBI 191953Z 11011KT 10SM SCT030 SCT040 SCT250 32/24 A2993 RMK AO2 LTG DSNT SW TSE00B03E28 SLP135 CB DSNT SW T03220239
KPBI 191931Z 11010KT 10SM SCT030 SCT040 SCT250 32/24 A2994 RMK AO2 TSE00B03E28 CB DSNT SW T03220239
KPBI 191903Z 10011KT 10SM TS SCT034CB SCT041 SCT250 33/23 A2995 RMK AO2 TSE00B03 OCNL LTGICCG SW TS SW MOV SW T03280233
KPBI 191853Z 11010KT 10SM SCT034CB SCT041 SCT250 33/23 A2994 RMK AO2 SLP139 CB SW MOV SW T03280233
KPBI 191753Z 13006KT 10SM SCT031CB SCT045 SCT250 33/23 A2996 RMK AO2 SLP145 CB SW MOV LTL 60000 T03280233 10339 20267 58012
KPBI 191653Z 12011KT 10SM SCT032TCU SCT055 SCT070 32/24 A2998 RMK AO2 RAB1554E44 SLP151 TCU SW-N T03220239
KPBI 191553Z 10004KT 10SM SCT034TCU SCT046 SCT070 31/22 A2999 RMK AO2 RAB14E47 SLP155 TCU N SE-S P0000 T03060222